sensor_id;sensor_type;location;lat;lon;timestamp;P1;durP1;ratioP1;P2;durP2;ratioP2
13743;SDS011;6943;52.368;9.966;2023-08-01T00:01:32;5.70;;;5.17;;
13743;SDS011;6943;52.368;9.966;2023-08-01T00:03:57;6.83;;;5.10;;
13743;SDS011;6943;52.368;9.966;2023-08-01T00:06:23;5.33;;;4.80;;
13743;SDS011;6943;52.368;9.966;2023-08-01T00:08:50;7.30;;;4.80;;
13743;SDS011;6943;52.368;9.966;2023-08-01T00:11:16;4.00;;;3.07;;
13743;SDS011;6943;52.368;9.966;2023-08-01T00:13:41;3.50;;;2.70;;
13743;SDS011;6943;52.368;9.966;2023-08-01T00:16:08;4.63;;;3.27;;
13743;SDS011;6943;52.368;9.966;2023-08-01T00:18:34;5.23;;;2.37;;
13743;SDS011;6943;52.368;9.966;2023-08-01T00:21:00;5.37;;;4.87;;
13743;SDS011;6943;52.368;9.966;2023-08-01T00:23:26;5.80;;;4.93;;
13743;SDS011;6943;52.368;9.966;2023-08-01T00:25:51;3.50;;;3.10;;
13743;SDS011;6943;52.368;9.966;2023-08-01T00:28:17;7.87;;;5.37;;
13743;SDS011;6943;52.368;9.966;2023-08-01T00:30:43;4.37;;;3.00;;
13743;SDS011;6943;52.368;9.966;2023-08-01T00:33:09;8.63;;;6.60;;
13743;SDS011;6943;52.368;9.966;2023-08-01T00:35:34;6.60;;;4.83;;
13743;SDS011;6943;52.368;9.966;2023-08-01T00:38:00;4.50;;;3.53;;
13743;SDS011;6943;52.368;9.966;2023-08-01T00:40:31;7.40;;;3.07;;
13743;SDS011;6943;52.368;9.966;2023-08-01T00:42:58;4.17;;;3.73;;
13743;SDS011;6943;52.368;9.966;2023-08-01T00:45:24;3.80;;;3.50;;
13743;SDS011;6943;52.368;9.966;2023-08-01T00:47:51;4.70;;;3.13;;
13743;SDS011;6943;52.368;9.966;2023-08-01T00:50:18;3.50;;;3.20;;
13743;SDS011;6943;52.368;9.966;2023-08-01T00:52:47;5.83;;;3.80;;
13743;SDS011;6943;52.368;9.966;2023-08-01T00:55:15;3.27;;;2.10;;
13743;SDS011;6943;52.368;9.966;2023-08-01T00:57:41;2.40;;;1.67;;
13743;SDS011;6943;52.368;9.966;2023-08-01T01:00:07;3.13;;;2.17;;
13743;SDS011;6943;52.368;9.966;2023-08-01T01:02:33;3.17;;;2.10;;
13743;SDS011;6943;52.368;9.966;2023-08-01T01:05:00;1.87;;;1.60;;
13743;SDS011;6943;52.368;9.966;2023-08-01T01:07:27;3.60;;;1.90;;
13743;SDS011;6943;52.368;9.966;2023-08-01T01:09:54;2.10;;;1.90;;
13743;SDS011;6943;52.368;9.966;2023-08-01T01:12:19;2.00;;;1.80;;
13743;SDS011;6943;52.368;9.966;2023-08-01T01:14:45;2.97;;;2.10;;
13743;SDS011;6943;52.368;9.966;2023-08-01T01:17:11;3.27;;;1.97;;
13743;SDS011;6943;52.368;9.966;2023-08-01T01:19:37;2.03;;;1.70;;
13743;SDS011;6943;52.368;9.966;2023-08-01T01:22:03;2.67;;;1.70;;
13743;SDS011;6943;52.368;9.966;2023-08-01T01:24:29;2.00;;;1.77;;
13743;SDS011;6943;52.368;9.966;2023-08-01T01:26:57;2.93;;;1.43;;
13743;SDS011;6943;52.368;9.966;2023-08-01T01:29:25;4.73;;;2.50;;
13743;SDS011;6943;52.368;9.966;2023-08-01T01:31:51;3.73;;;1.80;;
13743;SDS011;6943;52.368;9.966;2023-08-01T01:34:17;1.53;;;1.43;;
13743;SDS011;6943;52.368;9.966;2023-08-01T01:36:43;2.23;;;1.40;;
13743;SDS011;6943;52.368;9.966;2023-08-01T01:39:08;3.57;;;1.47;;
13743;SDS011;6943;52.368;9.966;2023-08-01T01:41:34;2.00;;;1.60;;
13743;SDS011;6943;52.368;9.966;2023-08-01T01:43:59;4.67;;;1.67;;
13743;SDS011;6943;52.368;9.966;2023-08-01T01:46:25;1.67;;;1.57;;
13743;SDS011;6943;52.368;9.966;2023-08-01T01:48:50;2.20;;;1.70;;
13743;SDS011;6943;52.368;9.966;2023-08-01T01:51:16;2.80;;;2.13;;
13743;SDS011;6943;52.368;9.966;2023-08-01T01:53:41;3.77;;;1.50;;
13743;SDS011;6943;52.368;9.966;2023-08-01T01:56:07;3.93;;;1.90;;
13743;SDS011;6943;52.368;9.966;2023-08-01T01:58:33;3.37;;;1.70;;
13743;SDS011;6943;52.368;9.966;2023-08-01T02:00:58;1.43;;;1.33;;
13743;SDS011;6943;52.368;9.966;2023-08-01T02:03:24;2.70;;;1.37;;
13743;SDS011;6943;52.368;9.966;2023-08-01T02:05:49;4.20;;;1.37;;
13743;SDS011;6943;52.368;9.966;2023-08-01T02:08:15;3.20;;;1.27;;
13743;SDS011;6943;52.368;9.966;2023-08-01T02:10:40;2.60;;;1.00;;
13743;SDS011;6943;52.368;9.966;2023-08-01T02:13:07;1.50;;;1.10;;
13743;SDS011;6943;52.368;9.966;2023-08-01T02:15:33;2.33;;;1.27;;
13743;SDS011;6943;52.368;9.966;2023-08-01T02:17:59;1.97;;;1.10;;
13743;SDS011;6943;52.368;9.966;2023-08-01T02:20:24;3.30;;;1.23;;
13743;SDS011;6943;52.368;9.966;2023-08-01T02:22:51;2.37;;;1.00;;
13743;SDS011;6943;52.368;9.966;2023-08-01T02:25:16;2.37;;;1.00;;
13743;SDS011;6943;52.368;9.966;2023-08-01T02:27:42;3.30;;;1.57;;
13743;SDS011;6943;52.368;9.966;2023-08-01T02:30:08;2.97;;;2.33;;
13743;SDS011;6943;52.368;9.966;2023-08-01T02:32:34;1.27;;;1.17;;
13743;SDS011;6943;52.368;9.966;2023-08-01T02:34:59;3.43;;;1.60;;
13743;SDS011;6943;52.368;9.966;2023-08-01T02:37:25;1.70;;;1.10;;
13743;SDS011;6943;52.368;9.966;2023-08-01T02:39:50;1.60;;;1.50;;
13743;SDS011;6943;52.368;9.966;2023-08-01T02:42:16;1.60;;;0.87;;
13743;SDS011;6943;52.368;9.966;2023-08-01T02:44:41;3.43;;;0.87;;
13743;SDS011;6943;52.368;9.966;2023-08-01T02:47:07;3.67;;;0.70;;
13743;SDS011;6943;52.368;9.966;2023-08-01T02:49:32;1.87;;;0.87;;
13743;SDS011;6943;52.368;9.966;2023-08-01T02:51:58;2.97;;;1.10;;
13743;SDS011;6943;52.368;9.966;2023-08-01T02:54:23;1.83;;;0.80;;
13743;SDS011;6943;52.368;9.966;2023-08-01T02:56:49;1.70;;;0.83;;
13743;SDS011;6943;52.368;9.966;2023-08-01T02:59:16;0.70;;;0.70;;
13743;SDS011;6943;52.368;9.966;2023-08-01T03:01:43;1.73;;;0.80;;
13743;SDS011;6943;52.368;9.966;2023-08-01T03:04:09;0.90;;;0.70;;
13743;SDS011;6943;52.368;9.966;2023-08-01T03:06:36;1.37;;;1.00;;
13743;SDS011;6943;52.368;9.966;2023-08-01T03:09:02;0.73;;;0.67;;
13743;SDS011;6943;52.368;9.966;2023-08-01T03:11:28;1.00;;;0.90;;
13743;SDS011;6943;52.368;9.966;2023-08-01T03:13:54;1.10;;;0.50;;
13743;SDS011;6943;52.368;9.966;2023-08-01T03:16:19;1.30;;;0.60;;
13743;SDS011;6943;52.368;9.966;2023-08-01T03:18:45;7.07;;;4.37;;
13743;SDS011;6943;52.368;9.966;2023-08-01T03:21:10;2.20;;;1.33;;
13743;SDS011;6943;52.368;9.966;2023-08-01T03:23:36;1.03;;;0.70;;
13743;SDS011;6943;52.368;9.966;2023-08-01T03:26:02;1.57;;;0.60;;
13743;SDS011;6943;52.368;9.966;2023-08-01T03:28:28;1.30;;;0.80;;
13743;SDS011;6943;52.368;9.966;2023-08-01T03:30:54;0.57;;;0.57;;
13743;SDS011;6943;52.368;9.966;2023-08-01T03:33:20;0.93;;;0.60;;
13743;SDS011;6943;52.368;9.966;2023-08-01T03:35:46;2.00;;;0.80;;
13743;SDS011;6943;52.368;9.966;2023-08-01T03:38:11;3.00;;;0.87;;
13743;SDS011;6943;52.368;9.966;2023-08-01T03:40:37;2.10;;;1.07;;
13743;SDS011;6943;52.368;9.966;2023-08-01T03:43:02;1.03;;;0.70;;
13743;SDS011;6943;52.368;9.966;2023-08-01T03:45:28;0.90;;;0.80;;
13743;SDS011;6943;52.368;9.966;2023-08-01T03:47:53;0.90;;;0.70;;
13743;SDS011;6943;52.368;9.966;2023-08-01T03:50:19;0.90;;;0.80;;
13743;SDS011;6943;52.368;9.966;2023-08-01T03:52:45;0.90;;;0.70;;
13743;SDS011;6943;52.368;9.966;2023-08-01T03:55:10;4.23;;;1.00;;
13743;SDS011;6943;52.368;9.966;2023-08-01T03:57:36;1.77;;;0.50;;
13743;SDS011;6943;52.368;9.966;2023-08-01T04:00:03;2.27;;;0.80;;
13743;SDS011;6943;52.368;9.966;2023-08-01T04:02:31;1.10;;;0.60;;
13743;SDS011;6943;52.368;9.966;2023-08-01T04:04:56;0.80;;;0.60;;
13743;SDS011;6943;52.368;9.966;2023-08-01T04:07:22;1.13;;;0.60;;
13743;SDS011;6943;52.368;9.966;2023-08-01T04:09:47;3.20;;;0.80;;
13743;SDS011;6943;52.368;9.966;2023-08-01T04:12:13;2.27;;;0.80;;
13743;SDS011;6943;52.368;9.966;2023-08-01T04:14:38;1.00;;;0.70;;
13743;SDS011;6943;52.368;9.966;2023-08-01T04:17:04;1.13;;;0.67;;
13743;SDS011;6943;52.368;9.966;2023-08-01T04:19:30;2.30;;;0.93;;
13743;SDS011;6943;52.368;9.966;2023-08-01T04:21:55;1.37;;;0.50;;
13743;SDS011;6943;52.368;9.966;2023-08-01T04:24:21;2.67;;;0.73;;
13743;SDS011;6943;52.368;9.966;2023-08-01T04:26:50;0.47;;;0.43;;
13743;SDS011;6943;52.368;9.966;2023-08-01T04:29:15;1.83;;;0.77;;
13743;SDS011;6943;52.368;9.966;2023-08-01T04:31:42;1.60;;;0.70;;
13743;SDS011;6943;52.368;9.966;2023-08-01T04:34:08;3.03;;;0.97;;
13743;SDS011;6943;52.368;9.966;2023-08-01T04:36:33;1.10;;;0.60;;
13743;SDS011;6943;52.368;9.966;2023-08-01T04:38:59;2.83;;;0.73;;
13743;SDS011;6943;52.368;9.966;2023-08-01T04:41:24;3.67;;;0.60;;
13743;SDS011;6943;52.368;9.966;2023-08-01T04:43:50;1.73;;;0.87;;
13743;SDS011;6943;52.368;9.966;2023-08-01T04:46:15;0.90;;;0.50;;
13743;SDS011;6943;52.368;9.966;2023-08-01T04:48:41;1.50;;;0.60;;
13743;SDS011;6943;52.368;9.966;2023-08-01T04:51:06;1.43;;;0.70;;
13743;SDS011;6943;52.368;9.966;2023-08-01T04:53:32;0.70;;;0.60;;
13743;SDS011;6943;52.368;9.966;2023-08-01T04:55:57;1.37;;;0.67;;
13743;SDS011;6943;52.368;9.966;2023-08-01T04:58:23;1.53;;;0.70;;
13743;SDS011;6943;52.368;9.966;2023-08-01T05:00:48;0.87;;;0.70;;
13743;SDS011;6943;52.368;9.966;2023-08-01T05:03:14;1.23;;;0.50;;
13743;SDS011;6943;52.368;9.966;2023-08-01T05:05:39;2.30;;;0.60;;
13743;SDS011;6943;52.368;9.966;2023-08-01T05:08:05;1.30;;;0.87;;
13743;SDS011;6943;52.368;9.966;2023-08-01T05:10:30;1.87;;;1.00;;
13743;SDS011;6943;52.368;9.966;2023-08-01T05:12:56;1.80;;;0.70;;
13743;SDS011;6943;52.368;9.966;2023-08-01T05:15:22;1.10;;;0.97;;
13743;SDS011;6943;52.368;9.966;2023-08-01T05:17:47;2.00;;;0.70;;
13743;SDS011;6943;52.368;9.966;2023-08-01T05:20:13;1.27;;;0.80;;
13743;SDS011;6943;52.368;9.966;2023-08-01T05:22:38;1.03;;;0.70;;
13743;SDS011;6943;52.368;9.966;2023-08-01T05:25:04;1.23;;;1.10;;
13743;SDS011;6943;52.368;9.966;2023-08-01T05:27:30;2.03;;;0.70;;
13743;SDS011;6943;52.368;9.966;2023-08-01T05:29:56;0.70;;;0.60;;
13743;SDS011;6943;52.368;9.966;2023-08-01T05:32:21;1.87;;;0.80;;
13743;SDS011;6943;52.368;9.966;2023-08-01T05:34:47;0.93;;;0.83;;
13743;SDS011;6943;52.368;9.966;2023-08-01T05:37:12;1.23;;;0.90;;
13743;SDS011;6943;52.368;9.966;2023-08-01T05:39:38;1.67;;;0.70;;
13743;SDS011;6943;52.368;9.966;2023-08-01T05:42:03;1.10;;;0.80;;
13743;SDS011;6943;52.368;9.966;2023-08-01T05:44:33;2.17;;;1.00;;
13743;SDS011;6943;52.368;9.966;2023-08-01T05:46:59;3.40;;;0.90;;
13743;SDS011;6943;52.368;9.966;2023-08-01T05:49:24;1.50;;;0.80;;
13743;SDS011;6943;52.368;9.966;2023-08-01T05:51:50;2.17;;;1.10;;
13743;SDS011;6943;52.368;9.966;2023-08-01T05:54:15;2.40;;;0.93;;
13743;SDS011;6943;52.368;9.966;2023-08-01T05:56:41;1.83;;;0.93;;
13743;SDS011;6943;52.368;9.966;2023-08-01T05:59:07;2.93;;;1.27;;
13743;SDS011;6943;52.368;9.966;2023-08-01T06:01:32;1.60;;;1.00;;
13743;SDS011;6943;52.368;9.966;2023-08-01T06:03:58;3.20;;;1.00;;
13743;SDS011;6943;52.368;9.966;2023-08-01T06:06:24;2.93;;;1.33;;
13743;SDS011;6943;52.368;9.966;2023-08-01T06:08:49;1.17;;;0.80;;
13743;SDS011;6943;52.368;9.966;2023-08-01T06:11:16;6.53;;;0.87;;
13743;SDS011;6943;52.368;9.966;2023-08-01T06:13:42;1.80;;;0.90;;
13743;SDS011;6943;52.368;9.966;2023-08-01T06:16:07;2.63;;;1.37;;
13743;SDS011;6943;52.368;9.966;2023-08-01T06:18:33;1.20;;;1.10;;
13743;SDS011;6943;52.368;9.966;2023-08-01T06:20:58;2.90;;;1.33;;
13743;SDS011;6943;52.368;9.966;2023-08-01T06:23:24;2.27;;;1.20;;
13743;SDS011;6943;52.368;9.966;2023-08-01T06:25:49;1.80;;;1.50;;
13743;SDS011;6943;52.368;9.966;2023-08-01T06:28:15;2.00;;;1.20;;
13743;SDS011;6943;52.368;9.966;2023-08-01T06:30:41;2.83;;;1.50;;
13743;SDS011;6943;52.368;9.966;2023-08-01T06:33:06;4.83;;;1.57;;
13743;SDS011;6943;52.368;9.966;2023-08-01T06:35:32;3.10;;;2.13;;
13743;SDS011;6943;52.368;9.966;2023-08-01T06:37:57;1.97;;;1.73;;
13743;SDS011;6943;52.368;9.966;2023-08-01T06:40:23;2.20;;;2.03;;
13743;SDS011;6943;52.368;9.966;2023-08-01T06:42:48;5.00;;;2.40;;
13743;SDS011;6943;52.368;9.966;2023-08-01T06:45:14;5.20;;;2.73;;
13743;SDS011;6943;52.368;9.966;2023-08-01T06:47:39;4.33;;;3.10;;
13743;SDS011;6943;52.368;9.966;2023-08-01T06:50:05;3.70;;;2.63;;
13743;SDS011;6943;52.368;9.966;2023-08-01T06:52:31;4.50;;;3.00;;
13743;SDS011;6943;52.368;9.966;2023-08-01T06:54:56;4.67;;;2.83;;
13743;SDS011;6943;52.368;9.966;2023-08-01T06:57:22;5.03;;;2.93;;
13743;SDS011;6943;52.368;9.966;2023-08-01T06:59:47;4.17;;;3.37;;
13743;SDS011;6943;52.368;9.966;2023-08-01T07:02:13;7.30;;;3.63;;
13743;SDS011;6943;52.368;9.966;2023-08-01T07:04:38;3.50;;;2.97;;
13743;SDS011;6943;52.368;9.966;2023-08-01T07:07:04;5.87;;;3.60;;
13743;SDS011;6943;52.368;9.966;2023-08-01T07:09:29;5.80;;;3.57;;
13743;SDS011;6943;52.368;9.966;2023-08-01T07:11:55;5.83;;;3.40;;
13743;SDS011;6943;52.368;9.966;2023-08-01T07:14:21;4.93;;;3.80;;
13743;SDS011;6943;52.368;9.966;2023-08-01T07:16:46;4.50;;;3.80;;
13743;SDS011;6943;52.368;9.966;2023-08-01T07:19:12;5.43;;;3.83;;
13743;SDS011;6943;52.368;9.966;2023-08-01T07:21:37;6.30;;;4.70;;
13743;SDS011;6943;52.368;9.966;2023-08-01T07:24:03;5.00;;;4.13;;
13743;SDS011;6943;52.368;9.966;2023-08-01T07:26:29;5.07;;;3.63;;
13743;SDS011;6943;52.368;9.966;2023-08-01T07:28:55;6.00;;;3.73;;
13743;SDS011;6943;52.368;9.966;2023-08-01T07:31:20;6.27;;;4.53;;
13743;SDS011;6943;52.368;9.966;2023-08-01T07:33:46;5.50;;;4.20;;
13743;SDS011;6943;52.368;9.966;2023-08-01T07:36:11;4.97;;;3.80;;
13743;SDS011;6943;52.368;9.966;2023-08-01T07:38:37;6.53;;;4.43;;
13743;SDS011;6943;52.368;9.966;2023-08-01T07:41:03;8.37;;;4.73;;
13743;SDS011;6943;52.368;9.966;2023-08-01T07:43:29;7.30;;;4.80;;
13743;SDS011;6943;52.368;9.966;2023-08-01T07:45:58;6.00;;;4.90;;
13743;SDS011;6943;52.368;9.966;2023-08-01T07:48:24;7.33;;;4.77;;
13743;SDS011;6943;52.368;9.966;2023-08-01T07:50:50;9.73;;;5.10;;
13743;SDS011;6943;52.368;9.966;2023-08-01T07:53:16;8.10;;;5.10;;
13743;SDS011;6943;52.368;9.966;2023-08-01T07:55:41;9.13;;;4.67;;
13743;SDS011;6943;52.368;9.966;2023-08-01T07:58:07;8.80;;;4.70;;
13743;SDS011;6943;52.368;9.966;2023-08-01T08:00:34;6.87;;;4.83;;
13743;SDS011;6943;52.368;9.966;2023-08-01T08:03:00;7.93;;;4.50;;
13743;SDS011;6943;52.368;9.966;2023-08-01T08:05:26;5.93;;;4.33;;
13743;SDS011;6943;52.368;9.966;2023-08-01T08:07:51;8.27;;;4.27;;
13743;SDS011;6943;52.368;9.966;2023-08-01T08:10:17;6.57;;;4.40;;
13743;SDS011;6943;52.368;9.966;2023-08-01T08:12:42;6.07;;;4.23;;
13743;SDS011;6943;52.368;9.966;2023-08-01T08:15:08;6.73;;;4.37;;
13743;SDS011;6943;52.368;9.966;2023-08-01T08:17:34;5.87;;;4.30;;
13743;SDS011;6943;52.368;9.966;2023-08-01T08:19:59;9.82;;;4.32;;
13743;SDS011;6943;52.368;9.966;2023-08-01T08:22:24;9.35;;;4.15;;
13743;SDS011;6943;52.368;9.966;2023-08-01T08:24:50;7.85;;;4.13;;
13743;SDS011;6943;52.368;9.966;2023-08-01T08:27:16;6.43;;;3.90;;
13743;SDS011;6943;52.368;9.966;2023-08-01T08:29:43;8.82;;;4.70;;
13743;SDS011;6943;52.368;9.966;2023-08-01T08:32:08;6.72;;;3.90;;
13743;SDS011;6943;52.368;9.966;2023-08-01T08:34:34;6.88;;;3.58;;
13743;SDS011;6943;52.368;9.966;2023-08-01T08:36:59;7.63;;;3.92;;
13743;SDS011;6943;52.368;9.966;2023-08-01T08:39:25;9.52;;;3.35;;
13743;SDS011;6943;52.368;9.966;2023-08-01T08:41:51;6.22;;;3.13;;
13743;SDS011;6943;52.368;9.966;2023-08-01T08:44:17;6.20;;;3.55;;
13743;SDS011;6943;52.368;9.966;2023-08-01T08:46:50;6.72;;;4.03;;
13743;SDS011;6943;52.368;9.966;2023-08-01T08:49:17;8.38;;;3.63;;
13743;SDS011;6943;52.368;9.966;2023-08-01T08:51:47;5.63;;;3.38;;
13743;SDS011;6943;52.368;9.966;2023-08-01T08:54:13;6.18;;;3.70;;
13743;SDS011;6943;52.368;9.966;2023-08-01T08:56:41;5.90;;;3.40;;
13743;SDS011;6943;52.368;9.966;2023-08-01T08:59:07;5.18;;;3.10;;
13743;SDS011;6943;52.368;9.966;2023-08-01T09:01:35;5.07;;;3.15;;
13743;SDS011;6943;52.368;9.966;2023-08-01T09:04:01;4.63;;;2.85;;
13743;SDS011;6943;52.368;9.966;2023-08-01T09:06:28;7.10;;;3.15;;
13743;SDS011;6943;52.368;9.966;2023-08-01T09:09:04;6.03;;;2.95;;
13743;SDS011;6943;52.368;9.966;2023-08-01T09:11:38;4.50;;;2.83;;
13743;SDS011;6943;52.368;9.966;2023-08-01T09:14:09;4.10;;;2.60;;
13743;SDS011;6943;52.368;9.966;2023-08-01T09:16:35;2.90;;;2.50;;
13743;SDS011;6943;52.368;9.966;2023-08-01T09:19:01;5.68;;;2.30;;
13743;SDS011;6943;52.368;9.966;2023-08-01T09:21:27;3.83;;;2.40;;
13743;SDS011;6943;52.368;9.966;2023-08-01T09:23:58;3.60;;;1.83;;
13743;SDS011;6943;52.368;9.966;2023-08-01T09:26:32;5.47;;;2.58;;
13743;SDS011;6943;52.368;9.966;2023-08-01T09:28:58;4.88;;;2.75;;
13743;SDS011;6943;52.368;9.966;2023-08-01T09:31:28;4.18;;;2.60;;
13743;SDS011;6943;52.368;9.966;2023-08-01T09:33:58;3.97;;;2.53;;
13743;SDS011;6943;52.368;9.966;2023-08-01T09:36:25;5.13;;;2.78;;
13743;SDS011;6943;52.368;9.966;2023-08-01T09:38:50;2.88;;;2.40;;
13743;SDS011;6943;52.368;9.966;2023-08-01T09:41:19;4.60;;;2.28;;
13743;SDS011;6943;52.368;9.966;2023-08-01T09:43:46;3.47;;;2.42;;
13743;SDS011;6943;52.368;9.966;2023-08-01T09:46:13;3.90;;;2.45;;
13743;SDS011;6943;52.368;9.966;2023-08-01T09:48:39;6.20;;;2.33;;
13743;SDS011;6943;52.368;9.966;2023-08-01T09:51:05;3.03;;;1.83;;
13743;SDS011;6943;52.368;9.966;2023-08-01T09:53:31;5.50;;;2.10;;
13743;SDS011;6943;52.368;9.966;2023-08-01T09:56:01;4.00;;;2.25;;
13743;SDS011;6943;52.368;9.966;2023-08-01T09:58:30;3.63;;;1.95;;
13743;SDS011;6943;52.368;9.966;2023-08-01T10:00:58;5.43;;;2.50;;
13743;SDS011;6943;52.368;9.966;2023-08-01T10:03:25;4.88;;;2.28;;
13743;SDS011;6943;52.368;9.966;2023-08-01T10:05:55;4.43;;;2.17;;
13743;SDS011;6943;52.368;9.966;2023-08-01T10:08:21;3.05;;;1.95;;
13743;SDS011;6943;52.368;9.966;2023-08-01T10:10:48;3.63;;;2.20;;
13743;SDS011;6943;52.368;9.966;2023-08-01T10:13:14;3.00;;;2.22;;
13743;SDS011;6943;52.368;9.966;2023-08-01T10:15:40;5.65;;;2.20;;
13743;SDS011;6943;52.368;9.966;2023-08-01T10:18:06;4.15;;;2.33;;
13743;SDS011;6943;52.368;9.966;2023-08-01T10:20:33;3.38;;;1.90;;
13743;SDS011;6943;52.368;9.966;2023-08-01T10:23:01;5.85;;;2.67;;
13743;SDS011;6943;52.368;9.966;2023-08-01T10:25:27;5.15;;;2.30;;
13743;SDS011;6943;52.368;9.966;2023-08-01T10:27:58;3.15;;;2.20;;
13743;SDS011;6943;52.368;9.966;2023-08-01T10:30:27;5.60;;;2.30;;
13743;SDS011;6943;52.368;9.966;2023-08-01T10:32:54;4.90;;;2.78;;
13743;SDS011;6943;52.368;9.966;2023-08-01T10:35:31;4.10;;;2.13;;
13743;SDS011;6943;52.368;9.966;2023-08-01T10:38:04;2.92;;;1.58;;
13743;SDS011;6943;52.368;9.966;2023-08-01T10:40:38;2.10;;;1.75;;
13743;SDS011;6943;52.368;9.966;2023-08-01T10:43:20;2.30;;;1.95;;
13743;SDS011;6943;52.368;9.966;2023-08-01T10:45:47;4.68;;;2.05;;
13743;SDS011;6943;52.368;9.966;2023-08-01T10:48:13;2.72;;;1.42;;
13743;SDS011;6943;52.368;9.966;2023-08-01T10:50:39;3.97;;;2.10;;
13743;SDS011;6943;52.368;9.966;2023-08-01T10:53:05;2.85;;;2.00;;
13743;SDS011;6943;52.368;9.966;2023-08-01T10:55:38;4.47;;;2.10;;
13743;SDS011;6943;52.368;9.966;2023-08-01T10:58:08;3.85;;;1.88;;
13743;SDS011;6943;52.368;9.966;2023-08-01T11:00:34;3.28;;;2.03;;
13743;SDS011;6943;52.368;9.966;2023-08-01T11:03:00;3.38;;;2.00;;
13743;SDS011;6943;52.368;9.966;2023-08-01T11:05:25;3.60;;;2.38;;
13743;SDS011;6943;52.368;9.966;2023-08-01T11:07:56;3.03;;;2.22;;
13743;SDS011;6943;52.368;9.966;2023-08-01T11:10:30;3.10;;;2.08;;
13743;SDS011;6943;52.368;9.966;2023-08-01T11:12:56;4.10;;;2.15;;
13743;SDS011;6943;52.368;9.966;2023-08-01T11:15:23;3.22;;;2.00;;
13743;SDS011;6943;52.368;9.966;2023-08-01T11:17:49;4.47;;;2.10;;
13743;SDS011;6943;52.368;9.966;2023-08-01T11:20:19;3.88;;;2.30;;
13743;SDS011;6943;52.368;9.966;2023-08-01T11:22:51;2.67;;;1.90;;
13743;SDS011;6943;52.368;9.966;2023-08-01T11:25:18;3.93;;;2.13;;
13743;SDS011;6943;52.368;9.966;2023-08-01T11:27:43;3.53;;;1.92;;
13743;SDS011;6943;52.368;9.966;2023-08-01T11:30:09;2.30;;;1.80;;
13743;SDS011;6943;52.368;9.966;2023-08-01T11:32:36;5.07;;;2.22;;
13743;SDS011;6943;52.368;9.966;2023-08-01T11:35:03;5.07;;;2.15;;
13743;SDS011;6943;52.368;9.966;2023-08-01T11:37:29;3.78;;;1.83;;
13743;SDS011;6943;52.368;9.966;2023-08-01T11:39:55;3.88;;;2.20;;
13743;SDS011;6943;52.368;9.966;2023-08-01T11:42:22;2.95;;;1.60;;
13743;SDS011;6943;52.368;9.966;2023-08-01T11:44:48;3.28;;;2.00;;
13743;SDS011;6943;52.368;9.966;2023-08-01T11:47:14;3.83;;;1.92;;
13743;SDS011;6943;52.368;9.966;2023-08-01T11:49:47;3.45;;;1.70;;
13743;SDS011;6943;52.368;9.966;2023-08-01T11:52:23;2.47;;;1.83;;
13743;SDS011;6943;52.368;9.966;2023-08-01T11:54:50;2.72;;;1.70;;
13743;SDS011;6943;52.368;9.966;2023-08-01T11:57:15;3.25;;;1.80;;
13743;SDS011;6943;52.368;9.966;2023-08-01T11:59:48;4.57;;;1.75;;
13743;SDS011;6943;52.368;9.966;2023-08-01T12:02:24;2.90;;;2.10;;
13743;SDS011;6943;52.368;9.966;2023-08-01T12:04:50;3.08;;;2.17;;
13743;SDS011;6943;52.368;9.966;2023-08-01T12:07:17;2.83;;;2.30;;
13743;SDS011;6943;52.368;9.966;2023-08-01T12:09:44;2.83;;;2.17;;
13743;SDS011;6943;52.368;9.966;2023-08-01T12:12:19;3.73;;;2.40;;
13743;SDS011;6943;52.368;9.966;2023-08-01T12:14:44;5.37;;;2.63;;
13743;SDS011;6943;52.368;9.966;2023-08-01T12:17:10;3.60;;;2.27;;
13743;SDS011;6943;52.368;9.966;2023-08-01T12:19:36;2.80;;;1.83;;
13743;SDS011;6943;52.368;9.966;2023-08-01T12:22:01;2.97;;;1.80;;
13743;SDS011;6943;52.368;9.966;2023-08-01T12:24:27;4.17;;;1.90;;
13743;SDS011;6943;52.368;9.966;2023-08-01T12:26:52;2.87;;;1.80;;
13743;SDS011;6943;52.368;9.966;2023-08-01T12:29:18;2.37;;;1.70;;
13743;SDS011;6943;52.368;9.966;2023-08-01T12:31:43;4.70;;;2.10;;
13743;SDS011;6943;52.368;9.966;2023-08-01T12:34:10;3.20;;;2.17;;
13743;SDS011;6943;52.368;9.966;2023-08-01T12:36:36;3.53;;;2.10;;
13743;SDS011;6943;52.368;9.966;2023-08-01T12:39:01;3.03;;;2.50;;
13743;SDS011;6943;52.368;9.966;2023-08-01T12:41:28;3.53;;;2.40;;
13743;SDS011;6943;52.368;9.966;2023-08-01T12:43:53;4.10;;;2.23;;
13743;SDS011;6943;52.368;9.966;2023-08-01T12:46:19;2.23;;;1.90;;
13743;SDS011;6943;52.368;9.966;2023-08-01T12:48:44;2.83;;;1.90;;
13743;SDS011;6943;52.368;9.966;2023-08-01T12:51:10;2.60;;;1.55;;
13743;SDS011;6943;52.368;9.966;2023-08-01T12:53:36;6.37;;;1.60;;
13743;SDS011;6943;52.368;9.966;2023-08-01T12:56:01;2.77;;;1.57;;
13743;SDS011;6943;52.368;9.966;2023-08-01T12:58:28;3.97;;;2.10;;
13743;SDS011;6943;52.368;9.966;2023-08-01T13:00:53;2.13;;;1.50;;
13743;SDS011;6943;52.368;9.966;2023-08-01T13:03:20;2.90;;;1.60;;
13743;SDS011;6943;52.368;9.966;2023-08-01T13:05:46;2.43;;;1.77;;
13743;SDS011;6943;52.368;9.966;2023-08-01T13:08:11;4.57;;;2.05;;
13743;SDS011;6943;52.368;9.966;2023-08-01T13:10:37;2.63;;;1.85;;
13743;SDS011;6943;52.368;9.966;2023-08-01T13:13:03;2.03;;;1.60;;
13743;SDS011;6943;52.368;9.966;2023-08-01T13:15:29;5.38;;;1.85;;
13743;SDS011;6943;52.368;9.966;2023-08-01T13:17:55;4.05;;;2.40;;
13743;SDS011;6943;52.368;9.966;2023-08-01T13:20:21;4.87;;;2.10;;
13743;SDS011;6943;52.368;9.966;2023-08-01T13:22:48;3.75;;;2.00;;
13743;SDS011;6943;52.368;9.966;2023-08-01T13:25:14;5.15;;;2.33;;
13743;SDS011;6943;52.368;9.966;2023-08-01T13:27:40;3.03;;;2.17;;
13743;SDS011;6943;52.368;9.966;2023-08-01T13:30:06;4.45;;;2.00;;
13743;SDS011;6943;52.368;9.966;2023-08-01T13:32:33;4.45;;;2.38;;
13743;SDS011;6943;52.368;9.966;2023-08-01T13:34:59;2.83;;;2.00;;
13743;SDS011;6943;52.368;9.966;2023-08-01T13:37:25;4.67;;;2.20;;
13743;SDS011;6943;52.368;9.966;2023-08-01T13:39:51;3.58;;;2.10;;
13743;SDS011;6943;52.368;9.966;2023-08-01T13:42:17;4.00;;;1.93;;
13743;SDS011;6943;52.368;9.966;2023-08-01T13:44:43;4.60;;;1.80;;
13743;SDS011;6943;52.368;9.966;2023-08-01T13:47:08;2.70;;;1.60;;
13743;SDS011;6943;52.368;9.966;2023-08-01T13:49:34;2.40;;;1.53;;
13743;SDS011;6943;52.368;9.966;2023-08-01T13:51:59;2.50;;;1.10;;
13743;SDS011;6943;52.368;9.966;2023-08-01T13:54:25;3.37;;;1.30;;
13743;SDS011;6943;52.368;9.966;2023-08-01T13:56:51;1.43;;;1.00;;
13743;SDS011;6943;52.368;9.966;2023-08-01T13:59:18;1.60;;;1.20;;
13743;SDS011;6943;52.368;9.966;2023-08-01T14:01:43;1.60;;;1.17;;
13743;SDS011;6943;52.368;9.966;2023-08-01T14:04:10;3.77;;;1.50;;
13743;SDS011;6943;52.368;9.966;2023-08-01T14:06:35;2.40;;;1.70;;
13743;SDS011;6943;52.368;9.966;2023-08-01T14:09:01;3.07;;;1.80;;
13743;SDS011;6943;52.368;9.966;2023-08-01T14:11:26;3.20;;;1.90;;
13743;SDS011;6943;52.368;9.966;2023-08-01T14:13:52;2.63;;;1.70;;
13743;SDS011;6943;52.368;9.966;2023-08-01T14:16:17;2.97;;;1.57;;
13743;SDS011;6943;52.368;9.966;2023-08-01T14:18:43;3.23;;;1.70;;
13743;SDS011;6943;52.368;9.966;2023-08-01T14:21:09;2.20;;;1.60;;
13743;SDS011;6943;52.368;9.966;2023-08-01T14:23:34;2.50;;;1.47;;
13743;SDS011;6943;52.368;9.966;2023-08-01T14:26:02;2.70;;;1.60;;
13743;SDS011;6943;52.368;9.966;2023-08-01T14:28:28;3.23;;;1.60;;
13743;SDS011;6943;52.368;9.966;2023-08-01T14:30:54;2.40;;;1.53;;
13743;SDS011;6943;52.368;9.966;2023-08-01T14:33:20;3.97;;;1.47;;
13743;SDS011;6943;52.368;9.966;2023-08-01T14:35:46;4.30;;;1.77;;
13743;SDS011;6943;52.368;9.966;2023-08-01T14:38:11;2.77;;;1.40;;
13743;SDS011;6943;52.368;9.966;2023-08-01T14:40:37;3.60;;;1.33;;
13743;SDS011;6943;52.368;9.966;2023-08-01T14:43:04;1.70;;;1.40;;
13743;SDS011;6943;52.368;9.966;2023-08-01T14:45:29;1.80;;;1.53;;
13743;SDS011;6943;52.368;9.966;2023-08-01T14:47:55;2.07;;;1.53;;
13743;SDS011;6943;52.368;9.966;2023-08-01T14:50:21;2.20;;;1.40;;
13743;SDS011;6943;52.368;9.966;2023-08-01T14:52:46;2.53;;;1.07;;
13743;SDS011;6943;52.368;9.966;2023-08-01T14:55:12;2.60;;;1.40;;